Time;durP1;ratioP1;P1;durP2;ratioP2;P2;SDS_P1;SDS_P2;PMS_P1;PMS_P2;Temp;Humidity;BMP_temperature;BMP_pressure;BME280_temperature;BME280_humidity;BME280_pressure;Samples;Min_cycle;Max_cycle;Signal;HPM_P1;HPM_P2
2023/10/26 00:01:32;;;;;;;27.63;13.15;;;;;;;;;;6268334;22;20022;-40
2023/10/26 00:04:00;;;;;;;28.40;12.27;;;;;;;;;;6247749;22;20019;-40
2023/10/26 00:06:29;;;;;;;33.55;13.70;;;;;;;;;;6267298;22;20015;-40
2023/10/26 00:08:57;;;;;;;30.73;13.07;;;;;;;;;;6272411;22;20030;-40
2023/10/26 00:11:30;;;;;;;29.10;12.90;;;;;;;;;;6276999;22;20823;-40
2023/10/26 00:13:58;;;;;;;31.40;13.75;;;;;;;;;;6265370;22;20080;-40
2023/10/26 00:16:25;;;;;;;30.77;13.35;;;;;;;;;;6245716;22;20442;-41
2023/10/26 00:18:53;;;;;;;31.33;13.45;;;;;;;;;;6256402;22;20019;-42
2023/10/26 00:21:21;;;;;;;38.37;15.60;;;;;;;;;;6273891;22;20026;-41
2023/10/26 00:23:52;;;;;;;34.40;14.75;;;;;;;;;;6255042;22;20023;-40
2023/10/26 00:26:19;;;;;;;33.53;14.77;;;;;;;;;;6271885;22;20534;-41
2023/10/26 00:28:47;;;;;;;35.97;15.57;;;;;;;;;;6279895;22;20448;-40
2023/10/26 00:31:15;;;;;;;35.30;15.25;;;;;;;;;;6264622;22;20271;-41
2023/10/26 00:33:43;;;;;;;36.50;15.20;;;;;;;;;;6276387;22;20257;-40
2023/10/26 00:36:11;;;;;;;37.70;15.27;;;;;;;;;;6266731;22;20015;-40
2023/10/26 00:38:39;;;;;;;37.80;16.23;;;;;;;;;;6270286;22;20015;-41
2023/10/26 00:41:08;;;;;;;37.25;16.10;;;;;;;;;;6267827;22;20483;-41
2023/10/26 00:43:36;;;;;;;36.30;16.33;;;;;;;;;;6276141;22;20011;-40
2023/10/26 00:46:03;;;;;;;44.00;16.73;;;;;;;;;;6266560;22;20540;-40
2023/10/26 00:48:32;;;;;;;40.33;16.15;;;;;;;;;;6274733;22;20297;-40
2023/10/26 00:50:59;;;;;;;39.60;15.85;;;;;;;;;;6267565;22;20015;-40
2023/10/26 00:53:33;;;;;;;40.88;15.75;;;;;;;;;;6277011;22;20402;-40
2023/10/26 00:56:01;;;;;;;38.05;15.82;;;;;;;;;;6277811;22;20094;-41
2023/10/26 00:58:31;;;;;;;41.77;16.50;;;;;;;;;;6237307;22;20579;-41
2023/10/26 01:00:58;;;;;;;43.65;15.98;;;;;;;;;;6274312;22;20100;-40
2023/10/26 01:03:28;;;;;;;38.55;16.02;;;;;;;;;;6270901;22;20030;-41
2023/10/26 01:05:56;;;;;;;37.83;16.35;;;;;;;;;;6270840;22;20015;-40
2023/10/26 01:08:24;;;;;;;42.55;16.95;;;;;;;;;;6264002;22;20309;-42
2023/10/26 01:10:52;;;;;;;45.53;17.60;;;;;;;;;;6273389;22;20490;-40
2023/10/26 01:13:20;;;;;;;45.10;17.10;;;;;;;;;;6271002;22;20464;-41
2023/10/26 01:15:50;;;;;;;42.50;16.58;;;;;;;;;;6272886;22;20015;-41
2023/10/26 01:18:17;;;;;;;49.90;16.90;;;;;;;;;;6266985;22;20026;-40
2023/10/26 01:20:45;;;;;;;46.25;17.65;;;;;;;;;;6276516;22;20026;-41
2023/10/26 01:23:14;;;;;;;44.03;17.33;;;;;;;;;;6237516;22;20015;-40
2023/10/26 01:25:43;;;;;;;44.92;17.35;;;;;;;;;;6272921;22;20143;-40
2023/10/26 01:28:11;;;;;;;43.90;17.67;;;;;;;;;;6274755;22;20019;-41
2023/10/26 01:30:41;;;;;;;45.22;17.58;;;;;;;;;;6276115;22;20015;-40
2023/10/26 01:33:09;;;;;;;47.60;18.55;;;;;;;;;;6266832;22;20457;-40
2023/10/26 01:35:38;;;;;;;46.63;18.00;;;;;;;;;;6272383;22;20334;-40
2023/10/26 01:38:06;;;;;;;43.85;17.58;;;;;;;;;;6249479;22;20077;-41
2023/10/26 01:40:35;;;;;;;42.90;17.95;;;;;;;;;;6278458;22;20069;-41
2023/10/26 01:43:03;;;;;;;49.25;19.88;;;;;;;;;;6242369;22;20369;-40
2023/10/26 01:45:31;;;;;;;53.92;19.33;;;;;;;;;;6267362;22;20019;-40
2023/10/26 01:47:59;;;;;;;52.63;18.87;;;;;;;;;;6286031;22;20019;-41
2023/10/26 01:50:27;;;;;;;45.72;17.38;;;;;;;;;;6268733;22;20351;-40
2023/10/26 01:52:55;;;;;;;44.60;16.73;;;;;;;;;;6258900;22;20461;-41
2023/10/26 01:55:23;;;;;;;40.78;15.77;;;;;;;;;;6288403;22;20015;-40
2023/10/26 01:57:52;;;;;;;47.95;17.58;;;;;;;;;;6277360;22;20015;-41
2023/10/26 02:00:20;;;;;;;45.33;18.00;;;;;;;;;;6275983;22;20019;-41
2023/10/26 02:02:49;;;;;;;48.28;18.77;;;;;;;;;;6279108;22;20026;-44
2023/10/26 02:05:17;;;;;;;48.15;18.40;;;;;;;;;;6279891;22;20018;-41
2023/10/26 02:07:45;;;;;;;43.92;17.02;;;;;;;;;;6278730;22;20438;-42
2023/10/26 02:10:14;;;;;;;46.00;17.77;;;;;;;;;;6277866;22;20034;-41
2023/10/26 02:12:42;;;;;;;43.77;17.27;;;;;;;;;;6245268;22;20015;-41
2023/10/26 02:15:12;;;;;;;48.60;18.67;;;;;;;;;;6273533;22;20423;-40
2023/10/26 02:17:41;;;;;;;46.17;17.75;;;;;;;;;;6275176;22;20022;-40
2023/10/26 02:20:09;;;;;;;43.13;17.50;;;;;;;;;;6285486;22;20026;-40
2023/10/26 02:22:37;;;;;;;42.25;16.35;;;;;;;;;;6275767;22;20473;-40
2023/10/26 02:25:05;;;;;;;44.23;17.73;;;;;;;;;;6253203;22;20011;-41
2023/10/26 02:27:32;;;;;;;44.33;16.63;;;;;;;;;;6255848;22;20011;-41
2023/10/26 02:30:02;;;;;;;43.42;16.95;;;;;;;;;;6269607;22;20019;-40
2023/10/26 02:32:33;;;;;;;45.88;16.23;;;;;;;;;;6267488;22;20023;-40
2023/10/26 02:35:01;;;;;;;52.08;18.90;;;;;;;;;;6249792;22;20430;-40
2023/10/26 02:37:29;;;;;;;49.23;19.67;;;;;;;;;;6265107;22;20019;-41
2023/10/26 02:39:57;;;;;;;49.67;19.48;;;;;;;;;;6273343;22;20022;-41
2023/10/26 02:42:24;;;;;;;52.72;20.08;;;;;;;;;;6269106;22;20015;-41
2023/10/26 02:44:52;;;;;;;55.47;18.63;;;;;;;;;;6277008;22;20018;-41
2023/10/26 02:47:20;;;;;;;48.25;19.30;;;;;;;;;;6264827;22;20046;-41
2023/10/26 02:49:49;;;;;;;47.57;18.30;;;;;;;;;;6279738;22;20022;-42
2023/10/26 02:52:16;;;;;;;47.30;18.23;;;;;;;;;;6258769;22;20597;-40
2023/10/26 02:54:46;;;;;;;49.38;18.48;;;;;;;;;;6268391;22;20023;-40
2023/10/26 02:57:14;;;;;;;50.03;17.75;;;;;;;;;;6279441;22;20046;-40
2023/10/26 02:59:42;;;;;;;45.40;17.67;;;;;;;;;;6274493;22;20030;-40
2023/10/26 03:02:16;;;;;;;43.63;16.87;;;;;;;;;;6283367;22;20019;-42
2023/10/26 03:04:45;;;;;;;46.13;17.70;;;;;;;;;;6260466;22;20012;-40
2023/10/26 03:07:21;;;;;;;52.05;19.25;;;;;;;;;;6278667;22;20012;-40
2023/10/26 03:09:49;;;;;;;40.05;15.98;;;;;;;;;;6272885;22;20445;-40
2023/10/26 03:12:17;;;;;;;39.00;15.95;;;;;;;;;;6253676;22;20065;-40
2023/10/26 03:14:47;;;;;;;43.00;14.97;;;;;;;;;;6249934;22;20054;-41
2023/10/26 03:17:16;;;;;;;38.95;14.80;;;;;;;;;;6270197;22;20008;-41
2023/10/26 03:19:43;;;;;;;36.97;14.05;;;;;;;;;;6274350;22;20015;-41
2023/10/26 03:22:11;;;;;;;40.03;16.00;;;;;;;;;;6284893;22;20073;-41
2023/10/26 03:24:41;;;;;;;35.70;15.90;;;;;;;;;;6281421;22;20016;-40
2023/10/26 03:27:10;;;;;;;36.80;15.00;;;;;;;;;;6269470;22;20038;-40
2023/10/26 03:29:39;;;;;;;38.92;14.43;;;;;;;;;;6283579;22;20453;-40
2023/10/26 03:32:07;;;;;;;37.72;14.73;;;;;;;;;;6257377;22;20011;-41
2023/10/26 03:34:36;;;;;;;34.17;14.27;;;;;;;;;;6276986;22;20019;-40
2023/10/26 03:37:03;;;;;;;35.25;14.80;;;;;;;;;;6261360;22;20211;-41
2023/10/26 03:39:31;;;;;;;36.23;14.90;;;;;;;;;;6268852;22;20287;-40
2023/10/26 03:42:03;;;;;;;29.88;13.82;;;;;;;;;;6278568;22;20588;-42
2023/10/26 03:44:30;;;;;;;35.42;14.38;;;;;;;;;;6247350;22;20072;-40
2023/10/26 03:46:58;;;;;;;34.55;14.05;;;;;;;;;;6280969;22;20012;-41
2023/10/26 03:49:26;;;;;;;31.63;13.70;;;;;;;;;;6272212;22;20015;-40
2023/10/26 03:51:53;;;;;;;34.07;14.37;;;;;;;;;;6280045;22;20011;-40
2023/10/26 03:54:21;;;;;;;31.58;13.95;;;;;;;;;;6273154;22;20433;-40
2023/10/26 03:56:49;;;;;;;33.97;13.63;;;;;;;;;;6285192;22;20015;-41
2023/10/26 03:59:18;;;;;;;32.95;13.70;;;;;;;;;;6273633;22;20023;-41
2023/10/26 04:01:46;;;;;;;30.77;13.57;;;;;;;;;;6281129;22;20094;-40
2023/10/26 04:04:16;;;;;;;30.90;13.60;;;;;;;;;;6272421;22;20125;-41
2023/10/26 04:06:46;;;;;;;26.63;11.55;;;;;;;;;;6285522;22;20488;-41
2023/10/26 04:09:14;;;;;;;28.02;12.75;;;;;;;;;;6271835;22;20011;-41
2023/10/26 04:11:44;;;;;;;27.63;12.48;;;;;;;;;;6278984;22;20496;-40
2023/10/26 04:14:12;;;;;;;29.48;12.85;;;;;;;;;;6276808;22;20102;-41
2023/10/26 04:16:41;;;;;;;28.17;12.37;;;;;;;;;;6279838;22;20150;-41
2023/10/26 04:19:09;;;;;;;28.80;11.93;;;;;;;;;;6270046;22;20015;-42
2023/10/26 04:21:36;;;;;;;23.98;11.82;;;;;;;;;;6283540;22;20015;-40
2023/10/26 04:24:04;;;;;;;24.17;10.63;;;;;;;;;;6280007;22;20025;-40
2023/10/26 04:26:37;;;;;;;23.33;10.65;;;;;;;;;;6282257;22;20053;-40
2023/10/26 04:29:06;;;;;;;22.93;10.13;;;;;;;;;;6260123;22;20026;-41
2023/10/26 04:31:35;;;;;;;25.02;10.80;;;;;;;;;;6274551;22;20015;-41
2023/10/26 04:34:04;;;;;;;24.85;10.50;;;;;;;;;;6266721;22;20073;-41
2023/10/26 04:36:31;;;;;;;23.75;9.43;;;;;;;;;;6283234;22;20019;-40
2023/10/26 04:38:59;;;;;;;21.30;9.40;;;;;;;;;;6262536;22;20015;-40
2023/10/26 04:41:27;;;;;;;20.30;9.48;;;;;;;;;;6280467;22;20021;-41
2023/10/26 04:43:54;;;;;;;18.50;9.30;;;;;;;;;;6248370;22;20175;-40
2023/10/26 04:46:22;;;;;;;19.73;8.07;;;;;;;;;;6270746;22;20019;-41
2023/10/26 04:48:50;;;;;;;18.45;7.95;;;;;;;;;;6269226;22;20026;-42
2023/10/26 04:51:19;;;;;;;18.27;8.32;;;;;;;;;;6275789;22;20019;-41
2023/10/26 04:53:47;;;;;;;13.55;6.68;;;;;;;;;;6266960;22;20100;-40
2023/10/26 04:56:16;;;;;;;14.57;7.13;;;;;;;;;;6271380;22;20370;-40
2023/10/26 04:58:48;;;;;;;14.25;6.57;;;;;;;;;;6261797;22;20029;-41
2023/10/26 05:01:16;;;;;;;13.13;6.50;;;;;;;;;;6275670;22;20035;-40
2023/10/26 05:04:02;;;;;;;12.40;6.18;;;;;;;;;;6273880;22;20026;-42
2023/10/26 05:06:31;;;;;;;11.63;5.80;;;;;;;;;;6263540;22;20026;-42
2023/10/26 05:08:59;;;;;;;12.60;5.47;;;;;;;;;;6262721;22;20066;-43
2023/10/26 05:11:28;;;;;;;11.18;4.82;;;;;;;;;;6277986;22;20012;-41
2023/10/26 05:13:56;;;;;;;14.32;6.13;;;;;;;;;;6257858;22;20434;-40
2023/10/26 05:16:24;;;;;;;13.15;6.35;;;;;;;;;;6277067;22;20019;-40
2023/10/26 05:18:51;;;;;;;11.60;5.68;;;;;;;;;;6268500;22;20016;-42
2023/10/26 05:21:19;;;;;;;13.17;5.87;;;;;;;;;;6261686;22;20019;-41
2023/10/26 05:23:48;;;;;;;12.98;5.45;;;;;;;;;;6237263;22;20015;-41
2023/10/26 05:26:16;;;;;;;10.07;4.50;;;;;;;;;;6268611;22;20092;-41
2023/10/26 05:28:44;;;;;;;11.75;4.88;;;;;;;;;;6271382;22;20090;-41
2023/10/26 05:31:12;;;;;;;10.27;4.13;;;;;;;;;;6256871;22;20022;-40
2023/10/26 05:33:39;;;;;;;10.27;4.40;;;;;;;;;;6273072;22;20023;-41
2023/10/26 05:36:08;;;;;;;9.68;4.60;;;;;;;;;;6272926;22;20072;-40
2023/10/26 05:38:36;;;;;;;8.43;3.90;;;;;;;;;;6267890;22;20456;-41
2023/10/26 05:41:05;;;;;;;10.40;4.38;;;;;;;;;;6273774;22;20019;-40
2023/10/26 05:43:33;;;;;;;8.02;3.65;;;;;;;;;;6265419;22;20023;-40
2023/10/26 05:46:02;;;;;;;9.90;3.83;;;;;;;;;;6278206;22;20458;-40
2023/10/26 05:48:31;;;;;;;9.15;3.70;;;;;;;;;;6262739;22;20015;-40
2023/10/26 05:50:59;;;;;;;8.73;3.88;;;;;;;;;;6273144;22;20011;-40
2023/10/26 05:53:27;;;;;;;8.23;2.90;;;;;;;;;;6261213;22;20019;-40
2023/10/26 05:56:07;;;;;;;7.55;2.90;;;;;;;;;;6278324;22;20472;-40
2023/10/26 05:58:36;;;;;;;6.97;2.40;;;;;;;;;;6278723;22;20445;-40
2023/10/26 06:01:04;;;;;;;6.28;3.05;;;;;;;;;;6242936;22;20361;-41
2023/10/26 06:03:31;;;;;;;8.27;2.80;;;;;;;;;;6277890;22;20453;-41
2023/10/26 06:06:00;;;;;;;7.65;2.88;;;;;;;;;;6267797;22;20332;-41
2023/10/26 06:08:27;;;;;;;6.55;2.50;;;;;;;;;;6270648;22;20015;-40
2023/10/26 06:10:55;;;;;;;8.23;2.93;;;;;;;;;;6269621;22;20015;-41
2023/10/26 06:13:24;;;;;;;6.63;2.70;;;;;;;;;;6270052;22;20030;-42
2023/10/26 06:15:53;;;;;;;9.43;3.55;;;;;;;;;;6266228;22;20019;-40
2023/10/26 06:18:21;;;;;;;7.85;3.70;;;;;;;;;;6275740;22;20076;-42
2023/10/26 06:20:56;;;;;;;8.23;3.28;;;;;;;;;;6258401;22;20073;-40
2023/10/26 06:23:24;;;;;;;7.60;2.93;;;;;;;;;;6269946;22;20090;-40
2023/10/26 06:25:57;;;;;;;8.38;2.97;;;;;;;;;;6271064;22;20430;-40
2023/10/26 06:28:25;;;;;;;7.38;3.28;;;;;;;;;;6269685;22;20198;-42
2023/10/26 06:30:55;;;;;;;7.95;2.95;;;;;;;;;;6263651;22;20449;-40
2023/10/26 06:33:23;;;;;;;8.82;2.80;;;;;;;;;;6266636;22;20468;-40
2023/10/26 06:35:51;;;;;;;7.23;2.17;;;;;;;;;;6274891;22;20023;-41
2023/10/26 06:38:20;;;;;;;7.75;2.92;;;;;;;;;;6265472;22;20026;-40
2023/10/26 06:40:48;;;;;;;10.95;3.72;;;;;;;;;;6280752;22;20072;-41
2023/10/26 06:43:16;;;;;;;6.95;2.83;;;;;;;;;;6269418;22;20046;-40
2023/10/26 06:45:45;;;;;;;7.78;2.50;;;;;;;;;;6276745;22;20019;-40
2023/10/26 06:48:14;;;;;;;7.53;2.20;;;;;;;;;;6237284;22;20019;-40
2023/10/26 06:50:44;;;;;;;7.95;2.10;;;;;;;;;;6265716;22;20020;-41
2023/10/26 06:53:12;;;;;;;8.38;2.00;;;;;;;;;;6271819;22;20012;-40
2023/10/26 06:55:41;;;;;;;7.40;1.77;;;;;;;;;;6271842;22;20019;-40
2023/10/26 06:58:08;;;;;;;9.80;1.65;;;;;;;;;;6267427;22;20263;-40
2023/10/26 07:00:36;;;;;;;5.93;1.80;;;;;;;;;;6263010;22;20353;-40
2023/10/26 07:03:05;;;;;;;8.20;1.20;;;;;;;;;;6284944;22;20593;-40
2023/10/26 07:05:35;;;;;;;7.70;1.50;;;;;;;;;;6264212;22;20724;-41
2023/10/26 07:08:02;;;;;;;11.60;2.15;;;;;;;;;;6253338;22;20060;-41
2023/10/26 07:10:31;;;;;;;5.28;0.80;;;;;;;;;;6268417;22;20015;-40
2023/10/26 07:12:59;;;;;;;8.80;1.30;;;;;;;;;;6278209;22;20320;-40
2023/10/26 07:15:28;;;;;;;8.88;1.30;;;;;;;;;;6267376;22;20022;-41
2023/10/26 07:17:56;;;;;;;13.63;1.60;;;;;;;;;;6269381;22;20521;-40
2023/10/26 07:20:24;;;;;;;15.85;1.30;;;;;;;;;;6272406;22;20015;-40
2023/10/26 07:22:53;;;;;;;20.08;2.50;;;;;;;;;;6271585;22;20019;-40
2023/10/26 07:25:21;;;;;;;13.00;1.97;;;;;;;;;;6272660;22;20445;-40
2023/10/26 07:27:50;;;;;;;11.13;2.17;;;;;;;;;;6270150;22;20417;-41
2023/10/26 07:30:25;;;;;;;12.85;1.30;;;;;;;;;;6270382;22;20015;-41
2023/10/26 07:32:53;;;;;;;17.45;1.83;;;;;;;;;;6276926;22;20481;-40
2023/10/26 07:35:22;;;;;;;11.45;1.70;;;;;;;;;;6246816;22;20016;-40
2023/10/26 07:37:51;;;;;;;24.80;3.07;;;;;;;;;;6275147;22;20011;-40
2023/10/26 07:40:48;;;;;;;13.80;2.10;;;;;;;;;;6266320;22;20441;-41
2023/10/26 07:43:16;;;;;;;12.85;1.98;;;;;;;;;;6269450;22;20019;-41
2023/10/26 07:45:47;;;;;;;13.18;2.03;;;;;;;;;;6273763;22;20472;-40
2023/10/26 07:48:15;;;;;;;16.02;2.80;;;;;;;;;;6261861;22;20407;-40
2023/10/26 07:50:43;;;;;;;14.30;2.63;;;;;;;;;;6270345;22;20090;-41
2023/10/26 07:53:11;;;;;;;17.25;1.80;;;;;;;;;;6260216;22;20346;-40
2023/10/26 07:55:38;;;;;;;24.50;2.22;;;;;;;;;;6277971;22;20023;-40
2023/10/26 07:58:07;;;;;;;16.33;1.40;;;;;;;;;;6260597;22;20038;-41
2023/10/26 08:00:37;;;;;;;16.58;1.50;;;;;;;;;;6272123;22;20019;-40
2023/10/26 08:03:04;;;;;;;19.63;2.30;;;;;;;;;;6259651;22;20042;-41
2023/10/26 08:05:32;;;;;;;16.27;2.25;;;;;;;;;;6245929;22;20019;-43
2023/10/26 08:08:01;;;;;;;12.93;2.00;;;;;;;;;;6248326;22;20038;-42
2023/10/26 08:10:31;;;;;;;20.48;3.85;;;;;;;;;;6252927;22;20484;-40
2023/10/26 08:12:59;;;;;;;19.38;2.05;;;;;;;;;;6250376;22;20015;-40
2023/10/26 08:15:28;;;;;;;17.53;3.43;;;;;;;;;;6242204;22;20335;-41
2023/10/26 08:18:16;;;;;;;17.58;2.65;;;;;;;;;;6260557;22;20015;-41
2023/10/26 08:20:49;;;;;;;20.05;2.30;;;;;;;;;;6246478;22;20050;-40
2023/10/26 08:23:17;;;;;;;16.33;2.70;;;;;;;;;;6261696;22;20019;-41
2023/10/26 08:25:45;;;;;;;17.25;2.60;;;;;;;;;;6243520;22;20112;-42
2023/10/26 08:28:13;;;;;;;23.77;1.87;;;;;;;;;;6239321;22;20019;-43
2023/10/26 08:30:42;;;;;;;13.93;1.83;;;;;;;;;;6236713;22;20015;-43
2023/10/26 08:33:10;;;;;;;19.90;2.08;;;;;;;;;;6227215;22;20016;-43
2023/10/26 08:35:39;;;;;;;14.63;1.98;;;;;;;;;;6223826;22;20354;-42
2023/10/26 08:38:08;;;;;;;17.27;2.13;;;;;;;;;;6222875;22;20015;-43
2023/10/26 08:40:37;;;;;;;14.57;2.27;;;;;;;;;;6255887;22;20449;-45
2023/10/26 08:43:06;;;;;;;20.48;3.70;;;;;;;;;;6247244;22;20053;-44
2023/10/26 08:45:35;;;;;;;25.35;2.25;;;;;;;;;;6246376;22;20019;-44
2023/10/26 08:48:08;;;;;;;19.75;2.47;;;;;;;;;;6237800;22;20254;-43
2023/10/26 08:50:36;;;;;;;22.10;2.40;;;;;;;;;;6261651;22;20019;-43
2023/10/26 08:53:04;;;;;;;26.03;2.80;;;;;;;;;;6242521;22;20026;-44
2023/10/26 08:55:33;;;;;;;22.95;2.53;;;;;;;;;;6251189;22;20015;-47
2023/10/26 08:58:03;;;;;;;19.48;2.85;;;;;;;;;;6246089;22;20339;-43
2023/10/26 09:00:32;;;;;;;18.95;2.33;;;;;;;;;;6252854;22;20011;-43
2023/10/26 09:03:00;;;;;;;20.77;4.03;;;;;;;;;;6261584;22;20025;-43
2023/10/26 09:05:32;;;;;;;18.90;2.20;;;;;;;;;;6238280;22;20094;-42
2023/10/26 09:08:15;;;;;;;23.80;1.85;;;;;;;;;;6258049;22;20015;-43
2023/10/26 09:10:43;;;;;;;25.33;4.18;;;;;;;;;;6244911;22;20019;-43
2023/10/26 09:13:11;;;;;;;26.83;2.45;;;;;;;;;;6256009;22;20106;-44
2023/10/26 09:15:46;;;;;;;22.80;2.22;;;;;;;;;;6238130;22;20489;-42
2023/10/26 09:18:15;;;;;;;14.70;2.47;;;;;;;;;;6255710;22;20023;-43
2023/10/26 09:20:44;;;;;;;18.58;2.65;;;;;;;;;;6249619;22;20019;-42
2023/10/26 09:23:26;;;;;;;23.48;3.13;;;;;;;;;;6259183;22;20019;-46
2023/10/26 09:25:58;;;;;;;20.80;2.95;;;;;;;;;;6253954;22;20426;-43
2023/10/26 09:28:26;;;;;;;29.75;2.88;;;;;;;;;;6240433;22;20023;-43
2023/10/26 09:30:58;;;;;;;19.87;2.57;;;;;;;;;;6258510;22;20015;-42
2023/10/26 09:33:26;;;;;;;15.85;2.10;;;;;;;;;;6242741;22;20231;-44
2023/10/26 09:35:59;;;;;;;17.55;2.03;;;;;;;;;;6248104;22;20058;-44
2023/10/26 09:38:35;;;;;;;17.42;2.80;;;;;;;;;;6232834;22;20355;-43
2023/10/26 09:41:03;;;;;;;23.45;3.58;;;;;;;;;;6254952;22;20026;-44
2023/10/26 09:43:37;;;;;;;20.47;2.60;;;;;;;;;;6241370;22;20471;-44
2023/10/26 09:46:14;;;;;;;30.63;3.95;;;;;;;;;;6229783;22;20112;-44
2023/10/26 09:48:43;;;;;;;20.83;2.58;;;;;;;;;;6259126;22;20139;-43
2023/10/26 09:51:12;;;;;;;19.85;2.55;;;;;;;;;;6253537;22;20022;-44
2023/10/26 09:53:40;;;;;;;20.83;1.83;;;;;;;;;;6243818;22;20648;-43
2023/10/26 09:56:13;;;;;;;17.70;2.20;;;;;;;;;;6253942;22;20019;-43
2023/10/26 09:58:44;;;;;;;22.77;2.13;;;;;;;;;;6257585;22;20756;-46
2023/10/26 10:01:29;;;;;;;16.27;1.95;;;;;;;;;;6224740;22;20175;-42
2023/10/26 10:03:57;;;;;;;28.55;2.83;;;;;;;;;;6235428;22;20026;-46
2023/10/26 10:06:40;;;;;;;16.80;2.13;;;;;;;;;;6256136;22;20126;-44
2023/10/26 10:09:10;;;;;;;19.67;2.30;;;;;;;;;;6241768;22;20043;-43
2023/10/26 10:11:39;;;;;;;20.85;2.10;;;;;;;;;;6260855;22;20685;-43
2023/10/26 10:14:08;;;;;;;24.98;1.95;;;;;;;;;;6248369;22;20038;-43
2023/10/26 10:16:58;;;;;;;22.23;3.58;;;;;;;;;;6255040;22;20665;-43
2023/10/26 10:19:28;;;;;;;24.35;3.72;;;;;;;;;;6257322;22;20023;-43
2023/10/26 10:21:58;;;;;;;17.40;2.30;;;;;;;;;;6242422;22;20449;-43
2023/10/26 10:24:45;;;;;;;17.33;2.00;;;;;;;;;;6253935;22;20023;-44
2023/10/26 10:27:16;;;;;;;14.02;2.60;;;;;;;;;;6245289;22;20015;-45
2023/10/26 10:29:43;;;;;;;18.25;2.67;;;;;;;;;;6226485;22;20045;-45
2023/10/26 10:32:34;;;;;;;31.23;4.05;;;;;;;;;;6256838;22;20472;-43
2023/10/26 10:35:07;;;;;;;23.23;3.37;;;;;;;;;;6231149;22;20073;-44
2023/10/26 10:37:36;;;;;;;16.20;2.80;;;;;;;;;;6252983;22;20023;-43
2023/10/26 10:40:10;;;;;;;18.33;2.08;;;;;;;;;;6245552;22;20434;-42
2023/10/26 10:42:46;;;;;;;18.50;2.63;;;;;;;;;;6229035;22;20021;-42
2023/10/26 10:45:14;;;;;;;15.43;1.60;;;;;;;;;;6247032;22;20015;-45
2023/10/26 10:47:42;;;;;;;19.37;2.70;;;;;;;;;;6244815;22;20022;-43
2023/10/26 10:50:20;;;;;;;15.05;1.75;;;;;;;;;;6257873;22;20069;-44
2023/10/26 10:52:53;;;;;;;17.88;2.13;;;;;;;;;;6234223;22;20015;-43
2023/10/26 10:55:21;;;;;;;17.17;1.92;;;;;;;;;;6246409;22;20616;-43
2023/10/26 10:57:58;;;;;;;18.40;2.38;;;;;;;;;;6240638;22;20410;-44
2023/10/26 11:00:42;;;;;;;20.80;2.53;;;;;;;;;;6238481;22;20031;-44
2023/10/26 11:03:17;;;;;;;12.52;2.40;;;;;;;;;;6255957;22;20026;-43
2023/10/26 11:05:45;;;;;;;19.08;2.15;;;;;;;;;;6226751;22;20748;-43
2023/10/26 11:08:13;;;;;;;17.98;1.90;;;;;;;;;;6248366;22;20019;-44
2023/10/26 11:10:41;;;;;;;11.25;2.15;;;;;;;;;;6232411;22;20579;-42
2023/10/26 11:13:10;;;;;;;15.27;1.53;;;;;;;;;;6223244;22;20347;-43
2023/10/26 11:15:38;;;;;;;16.52;2.08;;;;;;;;;;6206990;22;20406;-42
2023/10/26 11:18:08;;;;;;;14.98;1.92;;;;;;;;;;6251371;22;20046;-42
2023/10/26 11:20:37;;;;;;;19.48;2.70;;;;;;;;;;6249776;22;20080;-43
2023/10/26 11:23:05;;;;;;;20.95;1.92;;;;;;;;;;6259185;22;20094;-44
2023/10/26 11:25:33;;;;;;;18.70;2.13;;;;;;;;;;6241557;22;20069;-43
2023/10/26 11:28:01;;;;;;;21.05;2.70;;;;;;;;;;6256533;22;20042;-44
2023/10/26 11:30:31;;;;;;;18.45;1.88;;;;;;;;;;6238590;22;20046;-43
2023/10/26 11:32:59;;;;;;;12.82;1.98;;;;;;;;;;6227778;22;20053;-43
2023/10/26 11:35:28;;;;;;;20.27;2.45;;;;;;;;;;6214274;22;20471;-44
2023/10/26 11:37:56;;;;;;;16.23;2.10;;;;;;;;;;6253791;22;20326;-43
2023/10/26 11:40:31;;;;;;;20.92;2.13;;;;;;;;;;6250879;22;20478;-44
2023/10/26 11:43:00;;;;;;;16.70;3.25;;;;;;;;;;6251008;22;20391;-44
2023/10/26 11:45:28;;;;;;;16.45;2.05;;;;;;;;;;6247629;22;20126;-43
2023/10/26 11:47:58;;;;;;;19.00;1.67;;;;;;;;;;6245311;22;20499;-42
2023/10/26 11:50:27;;;;;;;16.13;1.30;;;;;;;;;;6245987;22;20015;-42
2023/10/26 11:52:56;;;;;;;17.83;1.92;;;;;;;;;;6247990;22;20153;-43
2023/10/26 11:55:24;;;;;;;9.57;1.75;;;;;;;;;;6243570;22;20011;-42
2023/10/26 11:57:52;;;;;;;17.55;2.10;;;;;;;;;;6252453;22;20411;-43
2023/10/26 12:03:05;;;;;;;18.43;1.90;;;;;;;;;;6202021;22;20046;-43
2023/10/26 12:05:37;;;;;;;19.55;2.95;;;;;;;;;;6238325;22;20086;-43
2023/10/26 12:08:05;;;;;;;11.57;1.60;;;;;;;;;;6264203;22;20464;-43
2023/10/26 12:10:33;;;;;;;18.73;2.13;;;;;;;;;;6243356;22;20015;-43
2023/10/26 12:13:02;;;;;;;15.77;1.70;;;;;;;;;;6255994;22;20026;-45
2023/10/26 12:15:30;;;;;;;15.17;2.03;;;;;;;;;;6235405;22;20045;-43
2023/10/26 12:17:58;;;;;;;11.02;1.58;;;;;;;;;;6245211;22;20031;-43
2023/10/26 12:20:27;;;;;;;16.10;1.38;;;;;;;;;;6226994;22;20480;-43
2023/10/26 12:22:55;;;;;;;13.43;1.17;;;;;;;;;;6242216;22;20015;-43
2023/10/26 12:25:23;;;;;;;14.57;2.22;;;;;;;;;;6210254;22;20011;-45
2023/10/26 12:27:50;;;;;;;10.53;1.40;;;;;;;;;;6229127;22;20037;-44
2023/10/26 12:30:40;;;;;;;17.25;2.15;;;;;;;;;;6249940;22;20030;-43
2023/10/26 12:33:08;;;;;;;14.57;1.85;;;;;;;;;;6241785;22;20015;-43
2023/10/26 12:35:37;;;;;;;12.48;1.58;;;;;;;;;;6245511;22;20437;-43
2023/10/26 12:38:05;;;;;;;14.52;1.73;;;;;;;;;;6253285;22;20026;-43
2023/10/26 12:40:35;;;;;;;11.30;1.80;;;;;;;;;;6247577;22;20591;-42
2023/10/26 12:43:03;;;;;;;11.00;1.50;;;;;;;;;;6238937;22;20023;-46
2023/10/26 12:45:31;;;;;;;10.90;1.70;;;;;;;;;;6248843;22;20042;-42
2023/10/26 12:47:59;;;;;;;14.73;2.72;;;;;;;;;;6223141;22;20073;-42
2023/10/26 12:50:31;;;;;;;9.90;0.90;;;;;;;;;;6246505;22;20493;-42
2023/10/26 12:53:01;;;;;;;11.83;1.27;;;;;;;;;;6245965;22;20030;-42
2023/10/26 12:55:34;;;;;;;11.75;1.50;;;;;;;;;;6213843;22;20025;-43
2023/10/26 12:58:04;;;;;;;11.75;1.50;;;;;;;;;;6233235;22;20118;-42
2023/10/26 13:00:34;;;;;;;17.75;2.30;;;;;;;;;;6252246;22;20015;-44
2023/10/26 13:03:04;;;;;;;9.50;1.88;;;;;;;;;;6242789;22;20123;-43
2023/10/26 13:05:32;;;;;;;11.43;1.43;;;;;;;;;;6241392;22;20401;-44
2023/10/26 13:08:02;;;;;;;9.63;1.33;;;;;;;;;;6211522;22;20368;-44
2023/10/26 13:10:31;;;;;;;11.23;1.63;;;;;;;;;;6252512;22;20027;-46
2023/10/26 13:12:59;;;;;;;16.73;2.13;;;;;;;;;;6224599;22;20061;-45
2023/10/26 13:15:27;;;;;;;11.13;1.50;;;;;;;;;;6235862;22;20015;-45
2023/10/26 13:17:54;;;;;;;10.57;1.10;;;;;;;;;;6186048;23;20016;-47
2023/10/26 13:20:22;;;;;;;13.43;1.35;;;;;;;;;;6165707;23;20019;-44
2023/10/26 13:22:51;;;;;;;15.88;1.90;;;;;;;;;;6192818;22;20082;-42
2023/10/26 13:25:20;;;;;;;7.53;1.23;;;;;;;;;;6160566;22;20031;-42
2023/10/26 13:27:47;;;;;;;8.82;1.05;;;;;;;;;;6179425;22;20723;-43
2023/10/26 13:30:15;;;;;;;9.97;1.27;;;;;;;;;;6192960;22;20027;-45
2023/10/26 13:32:43;;;;;;;11.10;1.48;;;;;;;;;;6179630;22;20042;-43
2023/10/26 13:35:11;;;;;;;10.10;1.10;;;;;;;;;;6174570;22;20624;-43
2023/10/26 13:37:39;;;;;;;12.35;1.40;;;;;;;;;;6193330;22;20027;-45
2023/10/26 13:40:12;;;;;;;8.40;1.63;;;;;;;;;;6186178;22;20024;-43
2023/10/26 13:42:41;;;;;;;11.10;1.40;;;;;;;;;;6190503;23;20048;-46
2023/10/26 13:45:11;;;;;;;12.65;1.98;;;;;;;;;;6180614;22;20020;-44
2023/10/26 13:47:43;;;;;;;9.68;1.25;;;;;;;;;;6182818;22;20046;-43
2023/10/26 13:50:11;;;;;;;10.68;1.00;;;;;;;;;;6188541;22;20016;-42
2023/10/26 13:52:38;;;;;;;10.02;1.73;;;;;;;;;;6191396;22;20016;-42
2023/10/26 13:55:06;;;;;;;13.77;1.43;;;;;;;;;;6180797;22;20044;-43
2023/10/26 13:57:34;;;;;;;15.15;1.15;;;;;;;;;;6189313;22;20451;-42
2023/10/26 14:00:06;;;;;;;12.93;1.70;;;;;;;;;;6184384;22;20509;-43
2023/10/26 14:02:55;;;;;;;9.65;1.40;;;;;;;;;;6184987;23;20716;-45
2023/10/26 14:05:23;;;;;;;9.95;1.50;;;;;;;;;;6185217;22;20020;-45
2023/10/26 14:07:57;;;;;;;11.07;1.40;;;;;;;;;;6183561;22;20020;-43
2023/10/26 14:10:26;;;;;;;13.18;1.77;;;;;;;;;;6179314;22;20487;-44
2023/10/26 14:12:56;;;;;;;9.43;1.45;;;;;;;;;;6183646;22;20392;-46
2023/10/26 14:15:27;;;;;;;12.82;1.35;;;;;;;;;;6165771;22;20047;-43
2023/10/26 14:17:56;;;;;;;10.20;1.83;;;;;;;;;;6232775;22;20528;-43
2023/10/26 14:20:23;;;;;;;18.43;2.13;;;;;;;;;;6244508;22;20400;-43
2023/10/26 14:22:51;;;;;;;14.75;1.35;;;;;;;;;;6237537;22;20354;-42
2023/10/26 14:25:19;;;;;;;10.43;1.48;;;;;;;;;;6223895;22;20330;-42
2023/10/26 14:27:46;;;;;;;11.60;1.92;;;;;;;;;;6239468;22;20022;-42
2023/10/26 14:30:14;;;;;;;14.40;2.05;;;;;;;;;;6235107;22;20606;-43
2023/10/26 14:32:49;;;;;;;13.23;1.60;;;;;;;;;;6212056;22;20431;-42
2023/10/26 14:35:18;;;;;;;15.20;2.42;;;;;;;;;;6232414;22;20423;-43
2023/10/26 14:37:49;;;;;;;14.10;1.58;;;;;;;;;;6243197;22;20015;-43
2023/10/26 14:40:17;;;;;;;9.15;1.30;;;;;;;;;;6221940;22;20357;-44
2023/10/26 14:42:45;;;;;;;11.00;1.67;;;;;;;;;;6231514;22;20094;-44
2023/10/26 14:45:13;;;;;;;17.97;2.03;;;;;;;;;;6211789;22;20320;-43